Home > Products > Valid Products > TAF

000
FTUS41 KPBZ 031100
TAFDUJ
TAF
KDUJ 031132Z 0312/0412 VRB03KT P6SM BKN150
     FM031700 15008KT 3SM -SNPL OVC025
     FM032000 17010KT 2SM -FZRASN OVC010
     FM040100 19012KT 2SM -RA OVC005 WS020/21045KT
     FM041000 27008KT 3SM -SN OVC010=



000
FTUS41 KPBZ 031100
TAFZZV
TAF
KZZV 031132Z 0312/0412 VRB03KT P6SM OVC100
     FM031500 13005KT 5SM -FZRA OVC020
     FM031600 15006KT 5SM -RA OVC010
     FM032000 18008KT 2SM -RA BR OVC008 WS020/22050KT
     FM040400 27010KT 3SM -RA OVC010=



000
FTUS41 KPBZ 031100
TAFAGC
TAF
KAGC 031132Z 0312/0412 VRB03KT P6SM OVC100
     FM031700 13005KT 5SM -FZRA OVC020
     FM031900 18008KT 5SM -RA BR OVC008
     FM040000 20005KT 2SM -RA BR OVC005 WS020/23045KT
     FM040700 27010KT 3SM -RA OVC010=



000
FTUS41 KPBZ 031100
TAFBVI
TAF
KBVI 031132Z 0312/0412 VRB03KT P6SM OVC100
     FM031700 13005KT 5SM -FZRA OVC020
     FM032000 18008KT 3SM -RA BR OVC008
     FM040000 20005KT 2SM -RA BR OVC005 WS020/23045KT
     FM040700 27010KT 3SM -RA OVC010=



000
FTUS41 KPBZ 031100
TAFMGW
TAF
KMGW 031132Z 0312/0412 VRB03KT P6SM BKN150
     FM031700 15005KT 6SM -RA OVC030
     FM032100 18005KT 2SM -RA BR OVC008
     FM040900 27008KT 2SM -RA OVC010=



000
FTUS41 KPBZ 031100
TAFPIT
TAF
KPIT 031132Z 0312/0418 VRB03KT P6SM OVC100
     FM031700 13005KT 5SM -FZRA OVC020
     FM031900 18008KT 5SM -RA BR OVC008
     FM040000 20005KT 2SM -RA BR OVC005 WS020/23045KT
     FM040700 27010KT 3SM -RA OVC010
     FM041300 VRB05KT 3SM -SN OVC010=



000
FTUS41 KPBZ 031100
TAFLBE
TAF
KLBE 031132Z 0312/0412 VRB05KT P6SM OVC100
     FM031800 17008KT 5SM -FZRA OVC025
     FM032000 17010KT 3SM -RA OVC015
     FM040100 20005KT 2SM -RA BR OVC005 WS020/23045KT
     FM040700 27010KT 3SM -RA OVC010=



000
FTUS41 KPBZ 031100
TAFDUJ
TAF
KDUJ 031132Z 0312/0412 VRB03KT P6SM BKN150
     FM031700 15008KT 3SM -SNPL OVC025
     FM032000 17010KT 2SM -FZRASN OVC010
     FM040100 19012KT 2SM -RA OVC005 WS020/21045KT
     FM041000 27008KT 3SM -SN OVC010=



000
FTUS41 KPBZ 031100
TAFHLG
TAF
KHLG 031132Z 0312/0412 VRB03KT P6SM OVC100
     FM031700 13005KT 5SM -FZRA OVC020
     FM031900 18008KT 5SM -RA BR OVC008
     FM040000 20005KT 2SM -RA BR OVC005 WS020/23045KT
     FM040700 27010KT 3SM -RA OVC010=



000
FTUS41 KPBZ 031100
TAFPIT
TAF
KPIT 031132Z 0312/0418 VRB03KT P6SM OVC100
     FM031700 13005KT 5SM -FZRA OVC020
     FM031900 18008KT 5SM -RA BR OVC008
     FM040000 20005KT 2SM -RA BR OVC005 WS020/23045KT
     FM040700 27010KT 3SM -RA OVC010
     FM041300 VRB05KT 3SM -SN OVC010=



000
FTUS41 KPBZ 031100
TAFLBE
TAF
KLBE 031132Z 0312/0412 VRB05KT P6SM OVC100
     FM031800 17008KT 5SM -FZRA OVC025
     FM032000 17010KT 3SM -RA OVC015
     FM040100 20005KT 2SM -RA BR OVC005 WS020/23045KT
     FM040700 27010KT 3SM -RA OVC010=



000
FTUS41 KPBZ 031100
TAFAGC
TAF
KAGC 031132Z 0312/0412 VRB03KT P6SM OVC100
     FM031700 13005KT 5SM -FZRA OVC020
     FM031900 18008KT 5SM -RA BR OVC008
     FM040000 20005KT 2SM -RA BR OVC005 WS020/23045KT
     FM040700 27010KT 3SM -RA OVC010=



000
FTUS41 KPBZ 031100
TAFZZV
TAF
KZZV 031132Z 0312/0412 VRB03KT P6SM OVC100
     FM031500 13005KT 5SM -FZRA OVC020
     FM031600 15006KT 5SM -RA OVC010
     FM032000 18008KT 2SM -RA BR OVC008 WS020/22050KT
     FM040400 27010KT 3SM -RA OVC010=



000
FTUS41 KPBZ 031100
TAFMGW
TAF
KMGW 031132Z 0312/0412 VRB03KT P6SM BKN150
     FM031700 15005KT 6SM -RA OVC030
     FM032100 18005KT 2SM -RA BR OVC008
     FM040900 27008KT 2SM -RA OVC010=



000
FTUS41 KPBZ 031100
TAFBVI
TAF
KBVI 031132Z 0312/0412 VRB03KT P6SM OVC100
     FM031700 13005KT 5SM -FZRA OVC020
     FM032000 18008KT 3SM -RA BR OVC008
     FM040000 20005KT 2SM -RA BR OVC005 WS020/23045KT
     FM040700 27010KT 3SM -RA OVC010=



000
FTUS41 KPBZ 031100
TAFHLG
TAF
KHLG 031132Z 0312/0412 VRB03KT P6SM OVC100
     FM031700 13005KT 5SM -FZRA OVC020
     FM031900 18008KT 5SM -RA BR OVC008
     FM040000 20005KT 2SM -RA BR OVC005 WS020/23045KT
     FM040700 27010KT 3SM -RA OVC010=



000
FTUS41 KPBZ 030800 AAA
TAFPIT
TAF AMD
KPIT 030857Z 0309/0412 VRB03KT P6SM OVC100
     FM031600 13005KT 5SM -FZRA OVC020
     FM031800 18008KT 5SM -RA BR OVC008
     FM040000 20005KT 2SM -RA BR OVC005 WS020/23045KT
     FM040700 27010KT 3SM -RA OVC010=



000
FTUS41 KPBZ 030500
TAFZZV
TAF
KZZV 030520Z 0306/0406 VRB03KT P6SM BKN150
     FM031700 13005KT 5SM -SHRA OVC020
     FM032000 18008KT 2SM -RA BR OVC008 WS020/22050KT=



000
FTUS41 KPBZ 030500
TAFBVI
TAF
KBVI 030520Z 0306/0406 VRB03KT P6SM BKN150
     FM031800 13005KT 5SM -FZRA OVC020
     FM032100 18008KT 2SM -RA BR OVC008
     FM040000 20005KT 2SM -RA BR OVC005 WS020/23045KT
      AMD NOT SKED=



000
FTUS41 KPBZ 030500
TAFDUJ
TAF
KDUJ 030520Z 0306/0406 VRB03KT P6SM BKN150
     FM031900 15008KT 3SM -SNPL OVC025
     FM032100 17010KT 2SM -FZRASN OVC010
     FM040200 19012KT 2SM -RA OVC005 WS020/21045KT=



000
FTUS41 KPBZ 030500
TAFPIT
TAF
KPIT 030520Z 0306/0412 VRB03KT P6SM BKN150
     FM031800 13005KT 5SM -FZRA OVC020
     FM032000 18008KT 2SM -RA BR OVC008
     FM040000 20005KT 2SM -RA BR OVC005 WS020/23045KT
     FM040700 27010KT 3SM -RA OVC010=



000
FTUS41 KPBZ 030500
TAFHLG
TAF
KHLG 030520Z 0306/0406 VRB03KT P6SM BKN150
     FM031800 13005KT 5SM -FZRA OVC020
     FM032000 18008KT 2SM -RA BR OVC008
     FM040000 20005KT 2SM -RA BR OVC005 WS020/23045KT=



000
FTUS41 KPBZ 030500
TAFAGC
TAF
KAGC 030520Z 0306/0406 VRB03KT P6SM BKN150
     FM031800 13005KT 5SM -FZRA OVC020
     FM032000 18008KT 2SM -RA BR OVC008
     FM040000 20005KT 2SM -RA BR OVC005 WS020/23045KT=



000
FTUS41 KPBZ 030500
TAFMGW
TAF
KMGW 030520Z 0306/0406 VRB03KT P6SM BKN150
     FM031800 15005KT 6SM -SHRA OVC030
     FM032100 18005KT 2SM -RA BR OVC008=



000
FTUS41 KPBZ 030500
TAFLBE
TAF
KLBE 030520Z 0306/0406 VRB05KT P6SM BKN150
     FM031900 17008KT 5SM -FZRA OVC025
     FM032100 17010KT 3SM -RA OVC015
     FM040100 20005KT 2SM -RA BR OVC005 WS020/23045KT=



000
FTUS41 KPBZ 030200 AAA
TAFPIT
TAF AMD
KPIT 030255Z 0303/0406 VRB03KT P6SM BKN150
     FM031800 13005KT 5SM -FZRASN OVC020
     FM032100 18008KT 2SM -RA BR OVC008
     FM040000 20005KT 2SM -RA BR OVC005 WS020/23045KT=



000
FTUS41 KPBZ 030200 AAA
TAFPIT
TAF AMD
KPIT 030255Z 0303/0406 VRB03KT P6SM BKN150
     FM031800 13005KT 5SM -FZRASN OVC020
     FM032100 18008KT 2SM -RA BR OVC008
     FM040000 20005KT 2SM -RA BR OVC005 WS020/23045KT=



000
FTUS41 KPBZ 022300
TAFPIT
TAF
KPIT 022322Z 0300/0406 VRB03KT P6SM BKN150
     FM031800 13005KT 5SM -FZRASN OVC020
     FM032100 18008KT 2SM -RA BR OVC008
     FM040000 20005KT 2SM -RA BR OVC005 WS020/23045KT=



000
FTUS41 KPBZ 022300
TAFBVI
TAF
KBVI 022322Z 0300/0324 VRB03KT P6SM BKN150
     FM031800 13005KT 5SM -FZRASN OVC020
     FM032100 18008KT 2SM -RA BR OVC008
      AMD NOT SKED 0302/0312=



000
FTUS41 KPBZ 022300
TAFAGC
TAF
KAGC 022322Z 0300/0324 VRB03KT P6SM BKN150
     FM031800 13005KT 5SM -FZRASN OVC020
     FM032100 18008KT 2SM -RA BR OVC008=



000
FTUS41 KPBZ 022300
TAFMGW
TAF
KMGW 022322Z 0300/0324 VRB03KT P6SM BKN150
     FM031800 15005KT 6SM -SHRA OVC030
     FM032100 18005KT 2SM -RA BR OVC008=



000
FTUS41 KPBZ 022300
TAFZZV
TAF
KZZV 022322Z 0300/0324 VRB03KT P6SM BKN150
     FM031700 13005KT 5SM -SHRA OVC020
     FM032000 18008KT 2SM -RA BR OVC008 WS020/22050KT=



000
FTUS41 KPBZ 022300
TAFHLG
TAF
KHLG 022322Z 0300/0324 VRB03KT P6SM BKN150
     FM031800 13005KT 5SM -FZRASN OVC020
     FM032000 18008KT 2SM -RA BR OVC008=



000
FTUS41 KPBZ 022300
TAFLBE
TAF
KLBE 022322Z 0300/0324 VRB05KT P6SM BKN150
     FM031900 17008KT 5SM -FZRASN OVC025
     FM032100 17010KT 3SM -RA OVC015=



000
FTUS41 KPBZ 022300
TAFDUJ
TAF
KDUJ 022322Z 0300/0324 VRB03KT P6SM BKN150
     FM031900 15008KT 3SM -SNPL OVC025
     FM032100 17010KT 2SM -FZRASN OVC010=



000
FTUS41 KPBZ 022000 AAA
TAFPIT
TAF AMD
KPIT 022058Z 0221/0324 30012KT P6SM SCT035
     FM030200 VRB03KT P6SM BKN120
     FM031800 13006KT 5SM -FZRASN OVC015
     FM032100 16007KT 2SM -RA BR OVC008=



000
FTUS41 KPBZ 022000 AAA
TAFPIT
TAF AMD
KPIT 022058Z 0221/0324 30012KT P6SM SCT035
     FM030200 VRB03KT P6SM BKN120
     FM031800 13006KT 5SM -FZRASN OVC015
     FM032100 16007KT 2SM -RA BR OVC008=



000
FTUS41 KPBZ 022000 AAA
TAFDUJ
TAF AMD
KDUJ 022018Z 0220/0318 27012G22KT P6SM SCT035
     FM030000 VRB03KT P6SM BKN250
     FM031100 VRB03KT P6SM OVC100
     FM031600 15006KT 6SM -FZRASN OVC015=



000
FTUS41 KPBZ 022000 AAA
TAFMGW
TAF AMD
KMGW 022017Z 0220/0318 29009KT P6SM SCT035
     FM030000 28008KT P6SM BKN250
     FM030700 VRB03KT P6SM OVC100
     FM031500 13007KT 6SM -FZRASN OVC015=



000
FTUS41 KPBZ 022000 AAA
TAFLBE
TAF AMD
KLBE 022016Z 0220/0318 29015KT P6SM BKN035
     FM030000 29006KT P6SM BKN250
     FM030800 VRB03KT P6SM OVC120
     FM031600 15007KT 6SM -FZRASN OVC015=



000
FTUS41 KPBZ 022000 AAA
TAFLBE
TAF AMD
KLBE 022016Z 0220/0318 29015KT P6SM BKN035
     FM030000 29006KT P6SM BKN250
     FM030800 VRB03KT P6SM OVC120
     FM031600 15007KT 6SM -FZRASN OVC015=



000
FTUS41 KPBZ 021700
TAFDUJ
TAF
KDUJ 021727Z 0218/0318 27014G21KT P6SM -SHSN BKN025
     FM022100 28010KT P6SM BKN035
     FM030100 VRB03KT P6SM BKN250
     FM031100 VRB03KT P6SM OVC100
     FM031600 15006KT 6SM -FZRASN OVC015=



000
FTUS41 KPBZ 021700
TAFPIT
TAF
KPIT 021727Z 0218/0324 30014KT P6SM BKN035
      TEMPO 0218/0220 6SM -SN BKN025
     FM022300 31005KT P6SM BKN250
     FM030800 VRB03KT P6SM OVC120
     FM031600 13006KT 6SM -FZRASN OVC015
     FM032100 16007KT 2SM -RA BR OVC008=



000
FTUS41 KPBZ 021700
TAFMGW
TAF
KMGW 021727Z 0218/0318 29009KT P6SM BKN035
      TEMPO 0218/0221 -SHSN BKN025
     FM030000 28008KT P6SM BKN250
     FM030700 VRB03KT P6SM OVC100
     FM031500 13007KT 6SM -FZRASN OVC015=



000
FTUS41 KPBZ 021700
TAFBVI
TAF
KBVI 021727Z 0218/0318 29009KT P6SM BKN035
      TEMPO 0218/0220 6SM -SN BKN025
     FM022300 30006KT P6SM BKN250
     FM030800 VRB03KT P6SM OVC120
     FM031600 13006KT 6SM -FZRASN OVC015=



000
FTUS41 KPBZ 021700
TAFAGC
TAF
KAGC 021727Z 0218/0318 29010KT P6SM BKN035
      TEMPO 0218/0220 6SM -SN BKN025
     FM022300 31005KT P6SM BKN250
     FM030800 VRB03KT P6SM OVC120
     FM031600 13006KT 6SM -FZRASN OVC015=



000
FTUS41 KPBZ 021700
TAFDUJ
TAF
KDUJ 021727Z 0218/0318 27014G21KT P6SM -SHSN BKN025
     FM022100 28010KT P6SM BKN035
     FM030100 VRB03KT P6SM BKN250
     FM031100 VRB03KT P6SM OVC100
     FM031600 15006KT 6SM -FZRASN OVC015=



000
FTUS41 KPBZ 021700
TAFZZV
TAF
KZZV 021727Z 0218/0318 27006KT P6SM SCT025
     FM022200 30005KT P6SM BKN250
     FM030600 VRB03KT P6SM OVC100
     FM031400 13005KT 5SM -FZRASN OVC015=



000
FTUS41 KPBZ 021700
TAFMGW
TAF
KMGW 021727Z 0218/0318 29009KT P6SM BKN035
      TEMPO 0218/0221 -SHSN BKN025
     FM030000 28008KT P6SM BKN250
     FM030700 VRB03KT P6SM OVC100
     FM031500 13007KT 6SM -FZRASN OVC015=



000
FTUS41 KPBZ 021700
TAFHLG
TAF
KHLG 021727Z 0218/0318 28012KT P6SM BKN035
      TEMPO 0218/0220 BKN025
     FM022300 29006KT P6SM BKN250
     FM030800 VRB03KT P6SM OVC120
     FM031500 13007KT 6SM -FZRASN OVC015=



000
FTUS41 KPBZ 021700
TAFLBE
TAF
KLBE 021727Z 0218/0318 29010G19KT P6SM BKN035
      TEMPO 0218/0221 6SM -SN BKN025
     FM030000 29006KT P6SM BKN250
     FM030800 VRB03KT P6SM OVC120
     FM031600 15007KT 6SM -FZRASN OVC015=



000
FTUS41 KPBZ 021700
TAFPIT
TAF
KPIT 021727Z 0218/0324 30014KT P6SM BKN035
      TEMPO 0218/0220 6SM -SN BKN025
     FM022300 31005KT P6SM BKN250
     FM030800 VRB03KT P6SM OVC120
     FM031600 13006KT 6SM -FZRASN OVC015
     FM032100 16007KT 2SM -RA BR OVC008=



000
FTUS41 KPBZ 021700
TAFHLG
TAF
KHLG 021727Z 0218/0318 28012KT P6SM BKN035
      TEMPO 0218/0220 BKN025
     FM022300 29006KT P6SM BKN250
     FM030800 VRB03KT P6SM OVC120
     FM031500 13007KT 6SM -FZRASN OVC015=



000
FTUS41 KPBZ 021700
TAFZZV
TAF
KZZV 021727Z 0218/0318 27006KT P6SM SCT025
     FM022200 30005KT P6SM BKN250
     FM030600 VRB03KT P6SM OVC100
     FM031400 13005KT 5SM -FZRASN OVC015=



000
FTUS41 KPBZ 021700
TAFBVI
TAF
KBVI 021727Z 0218/0318 29009KT P6SM BKN035
      TEMPO 0218/0220 6SM -SN BKN025
     FM022300 30006KT P6SM BKN250
     FM030800 VRB03KT P6SM OVC120
     FM031600 13006KT 6SM -FZRASN OVC015=



000
FTUS41 KPBZ 021700
TAFAGC
TAF
KAGC 021727Z 0218/0318 29010KT P6SM BKN035
      TEMPO 0218/0220 6SM -SN BKN025
     FM022300 31005KT P6SM BKN250
     FM030800 VRB03KT P6SM OVC120
     FM031600 13006KT 6SM -FZRASN OVC015=



000
FTUS41 KPBZ 021700
TAFLBE
TAF
KLBE 021727Z 0218/0318 29010G19KT P6SM BKN035
      TEMPO 0218/0221 6SM -SN BKN025
     FM030000 29006KT P6SM BKN250
     FM030800 VRB03KT P6SM OVC120
     FM031600 15007KT 6SM -FZRASN OVC015=



000
FTUS41 KPBZ 021500 AAA
TAFDUJ
TAF AMD
KDUJ 021535Z 0216/0312 27016G26KT 4SM -SN OVC025
      TEMPO 0216/0217 1SM -SN OVC015
     FM021800 28010KT P6SM OVC025
     FM030100 VRB03KT P6SM OVC015=



000
FTUS41 KPBZ 021300 AAA
TAFMGW
TAF AMD
KMGW 021327Z 0213/0312 29009KT P6SM BKN025 OVC035
      TEMPO 0214/0215 2SM -SN OVC015
     FM021800 28008KT P6SM BKN015
     FM030000 28008KT P6SM BKN250
     FM030700 VRB03KT P6SM OVC100=



000
FTUS41 KPBZ 021300 AAA
TAFMGW
TAF AMD
KMGW 021327Z 0213/0312 29009KT P6SM BKN025 OVC035
      TEMPO 0214/0215 2SM -SN OVC015
     FM021800 28008KT P6SM BKN015
     FM030000 28008KT P6SM BKN250
     FM030700 VRB03KT P6SM OVC100=



000
FTUS41 KPBZ 021300 AAA
TAFLBE
TAF AMD
KLBE 021326Z 0213/0312 29011G19KT 5SM -SN OVC021
      TEMPO 0213/0214 1SM -SN BKN008 OVC015
     FM022000 28008KT P6SM OVC025
     FM030100 VRB03KT P6SM BKN250=



000
FTUS41 KPBZ 021300 AAA
TAFHLG
TAF AMD
KHLG 021326Z 0213/0312 30014KT P6SM SCT015 OVC025
      TEMPO 0213/0214 1SM -SN OVC015
     FM021600 28008KT P6SM BKN025
     FM022300 VRB03KT P6SM BKN250
     FM030800 VRB05KT P6SM OVC120=



000
FTUS41 KPBZ 021300 AAA
TAFLBE
TAF AMD
KLBE 021326Z 0213/0312 29011G19KT 5SM -SN OVC021
      TEMPO 0213/0214 1SM -SN BKN008 OVC015
     FM022000 28008KT P6SM OVC025
     FM030100 VRB03KT P6SM BKN250=



000
FTUS41 KPBZ 021300 AAA
TAFHLG
TAF AMD
KHLG 021326Z 0213/0312 30014KT P6SM SCT015 OVC025
      TEMPO 0213/0214 1SM -SN OVC015
     FM021600 28008KT P6SM BKN025
     FM022300 VRB03KT P6SM BKN250
     FM030800 VRB05KT P6SM OVC120=



000
FTUS41 KPBZ 021100 CCA
TAFDUJ
TAF COR
KDUJ 021142Z 0212/0312 27016G26KT 2SM -SN OVC025
      TEMPO 0212/0214 4SM -SN
     FM021400 28010KT P6SM OVC025
     FM030100 VRB03KT P6SM OVC015=



000
FTUS41 KPBZ 021100
TAFHLG
TAF
KHLG 021139Z 0212/0312 30014KT P6SM OVC015
     FM021600 28008KT P6SM BKN025
     FM022300 VRB03KT P6SM BKN250
     FM030800 VRB05KT P6SM OVC120=



000
FTUS41 KPBZ 021100
TAFAGC
TAF
KAGC 021139Z 0212/0312 32010G20KT 4SM -SN OVC015
     FM021300 28008KT P6SM BKN025
     FM022300 VRB03KT P6SM BKN250
     FM030800 VRB05KT P6SM OVC120=



000
FTUS41 KPBZ 021100
TAFBVI
TAF
KBVI 021139Z 0212/0312 27008KT P6SM OVC010
     FM021600 28008KT P6SM BKN025
     FM022300 VRB03KT P6SM BKN250
     FM030800 VRB05KT P6SM OVC120=



000
FTUS41 KPBZ 021100
TAFMGW
TAF
KMGW 021139Z 0212/0312 29009KT P6SM BKN017 OVC022
     FM021800 28008KT P6SM BKN015
     FM030000 28008KT P6SM BKN250
     FM030700 VRB03KT P6SM OVC100=



000
FTUS41 KPBZ 021100
TAFLBE
TAF
KLBE 021139Z 0212/0312 29011G19KT P6SM OVC021
      TEMPO 0212/0214 5SM -SN
     FM022000 28008KT P6SM OVC025
     FM030100 VRB03KT P6SM BKN250=



000
FTUS41 KPBZ 021100
TAFHLG
TAF
KHLG 021139Z 0212/0312 30014KT P6SM OVC015
     FM021600 28008KT P6SM BKN025
     FM022300 VRB03KT P6SM BKN250
     FM030800 VRB05KT P6SM OVC120=



000
FTUS41 KPBZ 021100
TAFBVI
TAF
KBVI 021139Z 0212/0312 27008KT P6SM OVC010
     FM021600 28008KT P6SM BKN025
     FM022300 VRB03KT P6SM BKN250
     FM030800 VRB05KT P6SM OVC120=



000
FTUS41 KPBZ 021100
TAFAGC
TAF
KAGC 021139Z 0212/0312 32010G20KT 4SM -SN OVC015
     FM021300 28008KT P6SM BKN025
     FM022300 VRB03KT P6SM BKN250
     FM030800 VRB05KT P6SM OVC120=



000
FTUS41 KPBZ 021100
TAFMGW
TAF
KMGW 021139Z 0212/0312 29009KT P6SM BKN017 OVC022
     FM021800 28008KT P6SM BKN015
     FM030000 28008KT P6SM BKN250
     FM030700 VRB03KT P6SM OVC100=



000
FTUS41 KPBZ 021100
TAFLBE
TAF
KLBE 021139Z 0212/0312 29011G19KT P6SM OVC021
      TEMPO 0212/0214 5SM -SN
     FM022000 28008KT P6SM OVC025
     FM030100 VRB03KT P6SM BKN250=



000
FTUS41 KPBZ 021100
TAFZZV
TAF
KZZV 021139Z 0212/0312 32014KT P6SM OVC017
     FM021700 29006KT P6SM BKN025
     FM022100 27006KT P6SM BKN250
     FM030600 VRB03KT P6SM OVC080=



000
FTUS41 KPBZ 021100
TAFPIT
TAF
KPIT 021139Z 0212/0318 31016KT 4SM -SN BR BKN015
     FM021300 28008KT P6SM BKN025
     FM022300 VRB03KT P6SM BKN250
     FM030800 VRB05KT P6SM OVC120
     FM031600 10006KT 6SM -FZRA OVC015=



000
FTUS41 KPBZ 021100
TAFDUJ
TAF
KDUJ 021139Z 0212/0312 29012KT 1 1/2SM -SN BR OVC018
      TEMPO 0212/0215 5SM -SN BR BKN008
     FM030900 VRB03KT P6SM OVC080=



000
FTUS41 KPBZ 021100
TAFZZV
TAF
KZZV 021139Z 0212/0312 32014KT P6SM OVC017
     FM021700 29006KT P6SM BKN025
     FM022100 27006KT P6SM BKN250
     FM030600 VRB03KT P6SM OVC080=



000
FTUS41 KPBZ 021100
TAFPIT
TAF
KPIT 021139Z 0212/0318 31016KT 4SM -SN BR BKN015
     FM021300 28008KT P6SM BKN025
     FM022300 VRB03KT P6SM BKN250
     FM030800 VRB05KT P6SM OVC120
     FM031600 10006KT 6SM -FZRA OVC015=



000
FTUS41 KPBZ 021100
TAFDUJ
TAF
KDUJ 021139Z 0212/0312 29012KT 1 1/2SM -SN BR OVC018
      TEMPO 0212/0215 5SM -SN BR BKN008
     FM030900 VRB03KT P6SM OVC080=



000
FTUS41 KPBZ 021000 AAD
TAFLBE
TAF AMD
KLBE 021022Z 0210/0306 27010G18KT P6SM OVC010
     FM022000 28008KT P6SM BKN025
     FM030100 VRB03KT P6SM BKN015=



000
FTUS41 KPBZ 021000 AAD
TAFLBE
TAF AMD
KLBE 021022Z 0210/0306 27010G18KT P6SM OVC010
     FM022000 28008KT P6SM BKN025
     FM030100 VRB03KT P6SM BKN015=



000
FTUS41 KPBZ 021000 AAB
TAFDUJ
TAF AMD
KDUJ 021001Z 0210/0306 27012G20KT 5SM BR OVC006
     FM021200 28008KT P6SM OVC010
     FM021900 28010KT P6SM OVC025
     FM030100 VRB03KT P6SM OVC015=



000
FTUS41 KPBZ 021000 AAB
TAFDUJ
TAF AMD
KDUJ 021001Z 0210/0306 27012G20KT 5SM BR OVC006
     FM021200 28008KT P6SM OVC010
     FM021900 28010KT P6SM OVC025
     FM030100 VRB03KT P6SM OVC015=



000
FTUS41 KPBZ 021000 AAC
TAFMGW
TAF AMD
KMGW 021000Z 0210/0306 VRB05KT P6SM OVC010
      TEMPO 0210/0212 OVC008
     FM021500 28008KT P6SM OVC025
     FM021800 28008KT P6SM BKN150=



000
FTUS41 KPBZ 020900 AAC
TAFLBE
TAF AMD
KLBE 020959Z 0210/0306 27008KT P6SM OVC010
     FM022000 28008KT P6SM BKN025
     FM030100 VRB03KT P6SM BKN015=



000
FTUS41 KPBZ 020900 AAD
TAFPIT
TAF AMD
KPIT 020953Z 0210/0312 30010KT P6SM OVC010
      TEMPO 0210/0212 5SM -SN
     FM021600 28008KT P6SM BKN025
     FM022300 VRB03KT P6SM SCT250
     FM030900 VRB05KT P6SM OVC120=



000
FTUS41 KPBZ 020900 AAD
TAFPIT
TAF AMD
KPIT 020953Z 0210/0312 30010KT P6SM OVC010
      TEMPO 0210/0212 5SM -SN
     FM021600 28008KT P6SM BKN025
     FM022300 VRB03KT P6SM SCT250
     FM030900 VRB05KT P6SM OVC120=



000
FTUS41 KPBZ 020900 AAB
TAFMGW
TAF AMD
KMGW 020902Z 0209/0306 VRB05KT P6SM OVC010
     FM021500 28008KT P6SM OVC025
     FM021800 28008KT P6SM BKN150=



000
FTUS41 KPBZ 020900 AAA
TAFAGC
TAF AMD
KAGC 020902Z 0209/0306 27008KT P6SM OVC010
     FM021600 28008KT P6SM BKN025
     FM022300 VRB03KT P6SM SCT250=



000
FTUS41 KPBZ 020900 AAA
TAFAGC
TAF AMD
KAGC 020902Z 0209/0306 27008KT P6SM OVC010
     FM021600 28008KT P6SM BKN025
     FM022300 VRB03KT P6SM SCT250=



000
FTUS41 KPBZ 020900 AAB
TAFMGW
TAF AMD
KMGW 020902Z 0209/0306 VRB05KT P6SM OVC010
     FM021500 28008KT P6SM OVC025
     FM021800 28008KT P6SM BKN150=



000
FTUS41 KPBZ 020900 AAC
TAFPIT
TAF AMD
KPIT 020900Z 0209/0312 30010KT P6SM OVC010
     FM021600 28008KT P6SM BKN025
     FM022300 VRB03KT P6SM SCT250
     FM030900 VRB05KT P6SM OVC120=



000
FTUS41 KPBZ 020900 AAC
TAFPIT
TAF AMD
KPIT 020900Z 0209/0312 30010KT P6SM OVC010
     FM021600 28008KT P6SM BKN025
     FM022300 VRB03KT P6SM SCT250
     FM030900 VRB05KT P6SM OVC120=



000
FTUS41 KPBZ 020800 AAB
TAFHLG
TAF AMD
KHLG 020844Z 0209/0306 27008KT P6SM OVC010
     FM021600 28008KT P6SM BKN025
     FM022300 VRB03KT P6SM SCT250=



000
FTUS41 KPBZ 020800 AAB
TAFHLG
TAF AMD
KHLG 020844Z 0209/0306 27008KT P6SM OVC010
     FM021600 28008KT P6SM BKN025
     FM022300 VRB03KT P6SM SCT250=



000
FTUS41 KPBZ 020800 AAB
TAFLBE
TAF AMD
KLBE 020810Z 0208/0306 27008KT P6SM OVC010
      TEMPO 0208/0211 5SM BR OVC008
     FM022000 28008KT P6SM BKN025
     FM030100 VRB03KT P6SM BKN015=



000
FTUS41 KPBZ 020700 AAA
TAFMGW
TAF AMD
KMGW 020744Z 0208/0306 VRB05KT P6SM OVC010
      TEMPO 0208/0210 BKN008
     FM021500 28008KT P6SM OVC025
     FM021800 28008KT P6SM BKN150=



000
FTUS41 KPBZ 020700 AAA
TAFLBE
TAF AMD
KLBE 020743Z 0208/0306 27008KT P6SM -SN OVC010
     FM022000 28008KT P6SM BKN025
     FM030100 VRB03KT P6SM BKN015=



000
FTUS41 KPBZ 020700 AAA
TAFDUJ
TAF AMD
KDUJ 020700Z 0207/0306 27012G20KT 5SM BR OVC006
     FM021000 28008KT P6SM OVC010
     FM021900 28010KT P6SM OVC025
     FM030100 VRB03KT P6SM OVC015=



000
FTUS41 KPBZ 020700 AAA
TAFDUJ
TAF AMD
KDUJ 020700Z 0207/0306 27012G20KT 5SM BR OVC006
     FM021000 28008KT P6SM OVC010
     FM021900 28010KT P6SM OVC025
     FM030100 VRB03KT P6SM OVC015=



000
FTUS41 KPBZ 020600 AAA
TAFHLG
TAF AMD
KHLG 020658Z 0207/0306 29012G18KT P6SM OVC010
     FM021600 28008KT P6SM BKN025
     FM022300 VRB03KT P6SM SCT250=



000
FTUS41 KPBZ 020600 AAA
TAFHLG
TAF AMD
KHLG 020658Z 0207/0306 29012G18KT P6SM OVC010
     FM021600 28008KT P6SM BKN025
     FM022300 VRB03KT P6SM SCT250=



000
FTUS41 KPBZ 020600 AAB
TAFPIT
TAF AMD
KPIT 020657Z 0207/0312 29010KT P6SM OVC010
      TEMPO 0207/0209 5SM -SN OVC007
     FM021600 28008KT P6SM BKN025
     FM022300 VRB03KT P6SM SCT250
     FM030900 VRB05KT P6SM OVC120=



000
FTUS41 KPBZ 020600 AAB
TAFPIT
TAF AMD
KPIT 020657Z 0207/0312 29010KT P6SM OVC010
      TEMPO 0207/0209 5SM -SN OVC007
     FM021600 28008KT P6SM BKN025
     FM022300 VRB03KT P6SM SCT250
     FM030900 VRB05KT P6SM OVC120=



000
FTUS41 KPBZ 020600 AAA
TAFPIT
TAF AMD
KPIT 020618Z 0206/0312 27008KT P6SM OVC010
      TEMPO 0206/0210 5SM -SN OVC007
     FM021600 28008KT P6SM BKN025
     FM022300 VRB03KT P6SM SCT250
     FM030900 VRB05KT P6SM OVC120=



000
FTUS41 KPBZ 020600 AAA
TAFPIT
TAF AMD
KPIT 020618Z 0206/0312 27008KT P6SM OVC010
      TEMPO 0206/0210 5SM -SN OVC007
     FM021600 28008KT P6SM BKN025
     FM022300 VRB03KT P6SM SCT250
     FM030900 VRB05KT P6SM OVC120=



000
FTUS41 KPBZ 020500
TAFPIT
TAF
KPIT 020520Z 0206/0312 27008KT P6SM OVC010
      TEMPO 0206/0210 -SN OVC007
     FM021600 28008KT P6SM BKN025
     FM022300 VRB03KT P6SM SCT250
     FM030900 VRB05KT P6SM OVC120=



000
FTUS41 KPBZ 020500
TAFLBE
TAF
KLBE 020520Z 0206/0306 27008KT 5SM -SN OVC010
      TEMPO 0206/0210 2SM -RASN OVC007
     FM022000 28008KT P6SM BKN025
     FM030100 VRB03KT P6SM BKN015=



000
FTUS41 KPBZ 020500
TAFAGC
TAF
KAGC 020520Z 0206/0306 27008KT P6SM OVC010
      TEMPO 0206/0210 3SM BR OVC007
     FM021600 28008KT P6SM BKN025
     FM022300 VRB03KT P6SM SCT250=



000
FTUS41 KPBZ 020500
TAFZZV
TAF
KZZV 020520Z 0206/0306 28006KT P6SM OVC015
      TEMPO 0206/0208 BKN008
     FM021600 27006KT P6SM SCT250=



000
FTUS41 KPBZ 020500
TAFHLG
TAF
KHLG 020520Z 0206/0306 27008KT P6SM OVC010
      TEMPO 0206/0210 OVC007
     FM021600 28008KT P6SM BKN025
     FM022300 VRB03KT P6SM SCT250=



000
FTUS41 KPBZ 020500
TAFBVI
TAF
KBVI 020520Z 0206/0306 27008KT P6SM OVC010
      TEMPO 0206/0210 OVC007
     FM021600 28008KT P6SM BKN025
     FM022300 VRB03KT P6SM SCT250
      AMD NOT SKED=



000
FTUS41 KPBZ 020500
TAFLBE
TAF
KLBE 020520Z 0206/0306 27008KT 5SM -SN OVC010
      TEMPO 0206/0210 2SM -RASN OVC007
     FM022000 28008KT P6SM BKN025
     FM030100 VRB03KT P6SM BKN015=



000
FTUS41 KPBZ 020500
TAFDUJ
TAF
KDUJ 020520Z 0206/0306 27008KT 3SM BR OVC010
      TEMPO 0206/0210 1SM BR OVC005
     FM021900 28010KT P6SM OVC025
     FM030100 VRB03KT P6SM OVC015=



000
FTUS41 KPBZ 020500
TAFZZV
TAF
KZZV 020520Z 0206/0306 28006KT P6SM OVC015
      TEMPO 0206/0208 BKN008
     FM021600 27006KT P6SM SCT250=



000
FTUS41 KPBZ 020500
TAFPIT
TAF
KPIT 020520Z 0206/0312 27008KT P6SM OVC010
      TEMPO 0206/0210 -SN OVC007
     FM021600 28008KT P6SM BKN025
     FM022300 VRB03KT P6SM SCT250
     FM030900 VRB05KT P6SM OVC120=



000
FTUS41 KPBZ 020500
TAFHLG
TAF
KHLG 020520Z 0206/0306 27008KT P6SM OVC010
      TEMPO 0206/0210 OVC007
     FM021600 28008KT P6SM BKN025
     FM022300 VRB03KT P6SM SCT250=



000
FTUS41 KPBZ 020500
TAFDUJ
TAF
KDUJ 020520Z 0206/0306 27008KT 3SM BR OVC010
      TEMPO 0206/0210 1SM BR OVC005
     FM021900 28010KT P6SM OVC025
     FM030100 VRB03KT P6SM OVC015=



000
FTUS41 KPBZ 020500
TAFBVI
TAF
KBVI 020520Z 0206/0306 27008KT P6SM OVC010
      TEMPO 0206/0210 OVC007
     FM021600 28008KT P6SM BKN025
     FM022300 VRB03KT P6SM SCT250
      AMD NOT SKED=



000
FTUS41 KPBZ 020500
TAFMGW
TAF
KMGW 020520Z 0206/0306 VRB05KT 6SM -RA OVC010
      TEMPO 0206/0210 2SM -RASN OVC007
     FM021000 VRB03KT P6SM OVC010
     FM021500 28008KT P6SM OVC025
     FM021800 28008KT P6SM BKN150=



000
FTUS41 KPBZ 020500
TAFAGC
TAF
KAGC 020520Z 0206/0306 27008KT P6SM OVC010
      TEMPO 0206/0210 3SM BR OVC007
     FM021600 28008KT P6SM BKN025
     FM022300 VRB03KT P6SM SCT250=



000
FTUS41 KPBZ 020500
TAFMGW
TAF
KMGW 020520Z 0206/0306 VRB05KT 6SM -RA OVC010
      TEMPO 0206/0210 2SM -RASN OVC007
     FM021000 VRB03KT P6SM OVC010
     FM021500 28008KT P6SM OVC025
     FM021800 28008KT P6SM BKN150=



000
FTUS41 KPBZ 020400 AAA
TAFMGW
TAF AMD
KMGW 020412Z 0204/0224 21006KT P6SM OVC010
      TEMPO 0204/0207 3SM -SN BKN008
     FM020900 28008KT P6SM OVC015
     FM021500 30007KT P6SM BKN025
     FM022300 33005KT P6SM SCT250=



000
FTUS41 KPBZ 020400 AAA
TAFMGW
TAF AMD
KMGW 020412Z 0204/0224 21006KT P6SM OVC010
      TEMPO 0204/0207 3SM -SN BKN008
     FM020900 28008KT P6SM OVC015
     FM021500 30007KT P6SM BKN025
     FM022300 33005KT P6SM SCT250=



000
FTUS41 KPBZ 020400 AAC
TAFPIT
TAF AMD
KPIT 020408Z 0204/0306 26006KT 2SM -SN BR OVC008
     FM020900 27006KT P6SM SCT008 OVC015
     FM021500 30007KT P6SM BKN025
     FM022300 33005KT P6SM SCT250=



000
FTUS41 KPBZ 020400 AAB
TAFAGC
TAF AMD
KAGC 020408Z 0204/0224 21006KT 4SM BR OVC005
     FM020900 28008KT P6SM OVC015
     FM021500 30007KT P6SM BKN025
     FM022300 33005KT P6SM SCT250=



000
FTUS41 KPBZ 020400 AAC
TAFPIT
TAF AMD
KPIT 020408Z 0204/0306 26006KT 2SM -SN BR OVC008
     FM020900 27006KT P6SM SCT008 OVC015
     FM021500 30007KT P6SM BKN025
     FM022300 33005KT P6SM SCT250=



000
FTUS41 KPBZ 020400 AAB
TAFAGC
TAF AMD
KAGC 020408Z 0204/0224 21006KT 4SM BR OVC005
     FM020900 28008KT P6SM OVC015
     FM021500 30007KT P6SM BKN025
     FM022300 33005KT P6SM SCT250=



000
FTUS41 KPBZ 020300 AAA
TAFAGC
TAF AMD
KAGC 020322Z 0203/0224 21006KT 4SM -SN OVC008
      TEMPO 0203/0204 2SM -SN OVC005
     FM020900 28008KT P6SM OVC015
     FM021500 30007KT P6SM BKN025
     FM022300 33005KT P6SM SCT250=



000
FTUS41 KPBZ 020300 AAA
TAFAGC
TAF AMD
KAGC 020322Z 0203/0224 21006KT 4SM -SN OVC008
      TEMPO 0203/0204 2SM -SN OVC005
     FM020900 28008KT P6SM OVC015
     FM021500 30007KT P6SM BKN025
     FM022300 33005KT P6SM SCT250=



000
FTUS41 KPBZ 020300 AAB
TAFPIT
TAF AMD
KPIT 020318Z 0203/0306 26006KT 4SM -SN BR OVC008
      TEMPO 0203/0204 2SM -SN
     FM020900 27006KT P6SM SCT008 OVC015
     FM021500 30007KT P6SM BKN025
     FM022300 33005KT P6SM SCT250=



000
FTUS41 KPBZ 020300 AAB
TAFPIT
TAF AMD
KPIT 020318Z 0203/0306 26006KT 4SM -SN BR OVC008
      TEMPO 0203/0204 2SM -SN
     FM020900 27006KT P6SM SCT008 OVC015
     FM021500 30007KT P6SM BKN025
     FM022300 33005KT P6SM SCT250=



000
FTUS41 KPBZ 020200 AAA
TAFPIT
TAF AMD
KPIT 020256Z 0203/0306 26006KT 4SM -SN BR OVC008
     FM020900 27006KT P6SM SCT008 OVC015
     FM021500 30007KT P6SM BKN025
     FM022300 33005KT P6SM SCT250=



000
FTUS41 KPBZ 020200 AAA
TAFDUJ
TAF AMD
KDUJ 020215Z 0202/0224 25008KT 4SM BR OVC005
     FM020500 28008KT 4SM BR OVC008
     FM021500 28008KT P6SM OVC015
     FM022000 30007KT P6SM BKN025=



000
FTUS41 KPBZ 012300
TAFDUJ
TAF
KDUJ 012332Z 0200/0224 26006KT 2SM -SHSN SCT004 OVC008
      TEMPO 0200/0202 1SM -SN BR OVC004
     FM020300 28006KT 2SM -SHSN BR OVC008
     FM021500 28008KT P6SM OVC015
     FM022000 30007KT P6SM BKN025=



000
FTUS41 KPBZ 012300
TAFDUJ
TAF
KDUJ 012332Z 0200/0224 26006KT 2SM -SHSN SCT004 OVC008
      TEMPO 0200/0202 1SM -SN BR OVC004
     FM020300 28006KT 2SM -SHSN BR OVC008
     FM021500 28008KT P6SM OVC015
     FM022000 30007KT P6SM BKN025=



000
FTUS41 KPBZ 012300
TAFHLG
TAF
KHLG 012321Z 0200/0224 22006KT 4SM -SN SCT004 OVC008
      TEMPO 0200/0202 2SM -SN OVC004
     FM020300 28006KT 6SM -SHSN OVC008
     FM020900 28008KT P6SM OVC015
     FM021500 30007KT P6SM BKN025
     FM022300 33005KT P6SM SCT250=



000
FTUS41 KPBZ 012300
TAFDUJ
TAF
KDUJ 012321Z 0200/0224 28006KT 2SM -SHSN SCT004 OVC008
      TEMPO 0200/0202 1/4SM -SN FG OVC004
     FM020300 28006KT 2SM -SHSN BR OVC008
     FM021500 28008KT P6SM OVC015
     FM022000 30007KT P6SM BKN025=



000
FTUS41 KPBZ 012300
TAFMGW
TAF
KMGW 012321Z 0200/0224 21006KT 4SM -RASN SCT004 OVC008
      TEMPO 0200/0202 4SM -SN OVC004
     FM020300 28006KT 6SM -SHSN OVC008
     FM020900 28008KT P6SM OVC015
     FM021500 30007KT P6SM BKN025
     FM022300 33005KT P6SM SCT250=



000
FTUS41 KPBZ 012300
TAFZZV
TAF
KZZV 012321Z 0200/0224 21006KT 4SM BR SCT004 OVC008
      TEMPO 0200/0202 2SM -SN OVC004
     FM020300 28006KT 6SM -SHSN OVC012
     FM020900 28008KT P6SM BKN025
     FM021500 30007KT P6SM BKN035=



000
FTUS41 KPBZ 012300
TAFLBE
TAF
KLBE 012321Z 0200/0224 21006KT 2SM -SN SCT004 OVC008
      TEMPO 0200/0202 1SM -RASN OVC004
     FM020300 28006KT 4SM -SHSN OVC008
     FM020900 28008KT P6SM OVC015
     FM021500 30007KT P6SM BKN025
     FM022300 33005KT P6SM SCT250=



000
FTUS41 KPBZ 012300
TAFAGC
TAF
KAGC 012321Z 0200/0224 21006KT 2SM -SN SCT004 OVC008
      TEMPO 0200/0202 1SM -SN OVC004
     FM020300 28006KT 4SM -SHSN OVC008
     FM020900 28008KT P6SM OVC015
     FM021500 30007KT P6SM BKN025
     FM022300 33005KT P6SM SCT250=



000
FTUS41 KPBZ 012300
TAFPIT
TAF
KPIT 012321Z 0200/0306 21006KT 2SM -SN SCT004 OVC008
      TEMPO 0200/0202 1SM -SN OVC004
     FM020300 28006KT 4SM -SHSN OVC008
     FM020900 28008KT P6SM OVC015
     FM021500 30007KT P6SM BKN025
     FM022300 33005KT P6SM SCT250=



000
FTUS41 KPBZ 012300
TAFBVI
TAF
KBVI 012321Z 0200/0224 21006KT 2SM -SN SCT004 OVC008
      TEMPO 0200/0202 1SM -SN OVC004
     FM020300 28006KT 4SM -SHSN OVC008
     FM020900 28008KT P6SM OVC015
     FM021500 30007KT P6SM BKN025
     FM022300 33005KT P6SM SCT250
      AMD NOT SKED 0202/0212=



000
FTUS41 KPBZ 012300 AAA
TAFLBE
TAF AMD
KLBE 012302Z 0123/0218 24007KT 2SM -SN SCT003 OVC006
      TEMPO 0123/0202 1/2SM SN OVC003
     FM020200 27010KT 3SM -SN OVC008
     FM021000 28011KT 6SM -SN OVC015
     FM021500 28014KT P6SM OVC025=



000
FTUS41 KPBZ 012300 AAA
TAFLBE
TAF AMD
KLBE 012302Z 0123/0218 24007KT 2SM -SN SCT003 OVC006
      TEMPO 0123/0202 1/2SM SN OVC003
     FM020200 27010KT 3SM -SN OVC008
     FM021000 28011KT 6SM -SN OVC015
     FM021500 28014KT P6SM OVC025=



000
FTUS41 KPBZ 012200 AAA
TAFMGW
TAF AMD
KMGW 012226Z 0122/0218 21007KT 4SM -SNRA OVC008
     FM020500 26005KT 1SM -SN OVC010
     FM020800 27010KT 3SM -SN OVC015
     FM021300 27007KT P6SM OVC025=



000
FTUS41 KPBZ 012200 AAA
TAFZZV
TAF AMD
KZZV 012220Z 0122/0218 22006KT 3SM -SNRA SCT004 OVC008
      TEMPO 0122/0124 2SM -SNRA OVC004
     FM020300 26006KT 3SM -SN OVC010
     FM020800 29006KT P6SM OVC025=



000
FTUS41 KPBZ 012200 AAB
TAFAGC
TAF AMD
KAGC 012219Z 0122/0218 23008KT 3SM -SNRA SCT003 OVC008
      TEMPO 0122/0124 1SM -SNRA OVC003
     FM020200 28006KT 3SM -SN OVC008
     FM020700 28010KT 6SM -SN OVC012
     FM021300 27010KT P6SM OVC025=



000
FTUS41 KPBZ 012100 AAA
TAFDUJ
TAF AMD
KDUJ 012144Z 0122/0218 24008KT 1SM -SN OVC004
     FM020100 27010KT 2SM -SN OVC006
     FM020700 28010KT P6SM -SHSN OVC008
     FM021500 28007KT P6SM OVC015=



000
FTUS41 KPBZ 012100 AAA
TAFHLG
TAF AMD
KHLG 012141Z 0122/0218 23008KT 1SM -SNRA OVC003
     FM012300 24008KT 3SM -SNRA SCT004 OVC008
      TEMPO 0123/0202 2SM -SNRA OVC004
     FM020200 28006KT 3SM -SHSN OVC008
     FM020700 28010KT P6SM -SHSN OVC020
     FM021300 27010KT P6SM OVC025=



000
FTUS41 KPBZ 012100 AAA
TAFBVI
TAF AMD
KBVI 012139Z 0122/0218 22008KT 1SM -SN OVC004
     FM012300 24008KT 2SM -SHSN OVC008
      TEMPO 0123/0202 1 1/2SM -SN OVC004
     FM020200 28006KT 3SM -SHSN OVC008
     FM020700 28008KT P6SM -SHSN OVC020
     FM021300 27010KT P6SM OVC025=



000
FTUS41 KPBZ 012100 AAA
TAFPIT
TAF AMD
KPIT 012104Z 0121/0224 21009KT 2SM -SNRA OVC007
     FM012300 24008KT 3SM -SNRA SCT008 OVC012
      TEMPO 0123/0202 2SM -SNRA OVC008
     FM020200 28006KT 3SM -SHSN OVC008
     FM020700 28010KT 6SM -SN OVC020
     FM021300 27010KT P6SM OVC025=



000
FTUS41 KPBZ 011900 AAA
TAFAGC
TAF AMD
KAGC 011946Z 0120/0218 23008KT 3SM -SNRA SCT004 OVC012
      TEMPO 0120/0122 1SM -SNRA OVC004
     FM020200 28006KT 3SM -SN OVC008
     FM020700 28010KT 6SM -SN OVC020
     FM021300 27010KT P6SM OVC025=



000
FTUS41 KPBZ 011700
TAFZZV
TAF
KZZV 011730Z 0118/0218 19005KT 2SM -SN BR OVC005
     FM012000 22006KT 3SM -SNRA SCT005 OVC012
      TEMPO 0120/0122 2SM -SNRA OVC005
     FM020300 26006KT 3SM -SN OVC010
     FM020800 29006KT P6SM OVC025=



000
FTUS41 KPBZ 011700
TAFMGW
TAF
KMGW 011730Z 0118/0218 20007KT 4SM -RA SCT007 OVC015
      TEMPO 0118/0121 3SM -SNRA OVC007
     FM020500 26005KT 1SM -SN OVC010
     FM020700 27010KT 3SM -SN OVC015
     FM020900 28008KT 6SM -SN OVC020
     FM021300 27007KT P6SM OVC025=



000
FTUS41 KPBZ 011700
TAFLBE
TAF
KLBE 011730Z 0118/0218 22007KT 2SM -SN SCT008 OVC012
      TEMPO 0118/0120 1SM -SN OVC008
     FM012100 23008KT 3SM -SNRA SCT008 OVC012
      TEMPO 0121/0123 2SM -SNRA OVC008
     FM020300 27010KT 3SM -SN OVC008
     FM021000 28011KT 6SM -SN OVC020
     FM021500 28014KT P6SM OVC025=



000
FTUS41 KPBZ 011700
TAFAGC
TAF
KAGC 011730Z 0118/0218 20010KT 2SM -SNRA SCT004 OVC016
      TEMPO 0118/0120 1/2SM SN OVC004
     FM012000 23008KT 3SM -SNRA SCT008 OVC012
      TEMPO 0120/0122 2SM -SNRA OVC008
     FM020200 28006KT 3SM -SN OVC008
     FM020700 28010KT 6SM -SN OVC020
     FM021300 27010KT P6SM OVC025=



000
FTUS41 KPBZ 011700
TAFPIT
TAF
KPIT 011730Z 0118/0224 20009KT 2SM -SNRA SCT006 OVC016
      TEMPO 0118/0120 1SM -SN OVC006
     FM012000 24008KT 3SM -SNRA SCT008 OVC012
      TEMPO 0120/0123 2SM -SNRA OVC008
     FM020200 28006KT 3SM -SN OVC008
     FM020700 28010KT 6SM -SN OVC020
     FM021300 27010KT P6SM OVC025=



000
FTUS41 KPBZ 011700
TAFDUJ
TAF
KDUJ 011730Z 0118/0218 20005KT 2SM -SN OVC008
      TEMPO 0118/0121 3/4SM -SN OVC005
     FM020500 27010KT 3SM -SN OVC010
     FM021000 28011KT 6SM -SN OVC015
     FM021500 28013KT P6SM OVC020=



000
FTUS41 KPBZ 011700
TAFHLG
TAF
KHLG 011730Z 0118/0218 21009KT 2SM -SN BR SCT005 OVC009
      TEMPO 0118/0120 3/4SM -SN OVC005
     FM012100 23008KT 3SM -SNRA SCT008 OVC012
      TEMPO 0121/0123 2SM -SNRA OVC008
     FM020300 26006KT 3SM -SN OVC008
     FM020700 28010KT 6SM -SN OVC015
     FM021200 28008KT P6SM OVC025=



000
FTUS41 KPBZ 011700
TAFBVI
TAF
KBVI 011730Z 0118/0218 22007KT 2SM -SN SCT006 OVC012
      TEMPO 0118/0120 1SM -SN OVC006
     FM012000 24007KT 3SM -SNRA SCT008 OVC012
      TEMPO 0120/0122 2SM -SN OVC008
     FM020200 28006KT 3SM -SN OVC008
     FM020700 28010KT 6SM -SN OVC020
     FM021300 27010KT P6SM OVC025=



000
FTUS41 KPBZ 011700
TAFZZV
TAF
KZZV 011730Z 0118/0218 19005KT 2SM -SN BR OVC005
     FM012000 22006KT 3SM -SNRA SCT005 OVC012
      TEMPO 0120/0122 2SM -SNRA OVC005
     FM020300 26006KT 3SM -SN OVC010
     FM020800 29006KT P6SM OVC025=



000
FTUS41 KPBZ 011700
TAFBVI
TAF
KBVI 011730Z 0118/0218 22007KT 2SM -SN SCT006 OVC012
      TEMPO 0118/0120 1SM -SN OVC006
     FM012000 24007KT 3SM -SNRA SCT008 OVC012
      TEMPO 0120/0122 2SM -SN OVC008
     FM020200 28006KT 3SM -SN OVC008
     FM020700 28010KT 6SM -SN OVC020
     FM021300 27010KT P6SM OVC025=



000
FTUS41 KPBZ 011700
TAFPIT
TAF
KPIT 011730Z 0118/0224 20009KT 2SM -SNRA SCT006 OVC016
      TEMPO 0118/0120 1SM -SN OVC006
     FM012000 24008KT 3SM -SNRA SCT008 OVC012
      TEMPO 0120/0123 2SM -SNRA OVC008
     FM020200 28006KT 3SM -SN OVC008
     FM020700 28010KT 6SM -SN OVC020
     FM021300 27010KT P6SM OVC025=



000
FTUS41 KPBZ 011700
TAFAGC
TAF
KAGC 011730Z 0118/0218 20010KT 2SM -SNRA SCT004 OVC016
      TEMPO 0118/0120 1/2SM SN OVC004
     FM012000 23008KT 3SM -SNRA SCT008 OVC012
      TEMPO 0120/0122 2SM -SNRA OVC008
     FM020200 28006KT 3SM -SN OVC008
     FM020700 28010KT 6SM -SN OVC020
     FM021300 27010KT P6SM OVC025=



000
FTUS41 KPBZ 011700
TAFHLG
TAF
KHLG 011730Z 0118/0218 21009KT 2SM -SN BR SCT005 OVC009
      TEMPO 0118/0120 3/4SM -SN OVC005
     FM012100 23008KT 3SM -SNRA SCT008 OVC012
      TEMPO 0121/0123 2SM -SNRA OVC008
     FM020300 26006KT 3SM -SN OVC008
     FM020700 28010KT 6SM -SN OVC015
     FM021200 28008KT P6SM OVC025=



000
FTUS41 KPBZ 011700
TAFLBE
TAF
KLBE 011730Z 0118/0218 22007KT 2SM -SN SCT008 OVC012
      TEMPO 0118/0120 1SM -SN OVC008
     FM012100 23008KT 3SM -SNRA SCT008 OVC012
      TEMPO 0121/0123 2SM -SNRA OVC008
     FM020300 27010KT 3SM -SN OVC008
     FM021000 28011KT 6SM -SN OVC020
     FM021500 28014KT P6SM OVC025=



000
FTUS41 KPBZ 011700
TAFMGW
TAF
KMGW 011730Z 0118/0218 20007KT 4SM -RA SCT007 OVC015
      TEMPO 0118/0121 3SM -SNRA OVC007
     FM020500 26005KT 1SM -SN OVC010
     FM020700 27010KT 3SM -SN OVC015
     FM020900 28008KT 6SM -SN OVC020
     FM021300 27007KT P6SM OVC025=



000
FTUS41 KPBZ 011700
TAFDUJ
TAF
KDUJ 011730Z 0118/0218 20005KT 2SM -SN OVC008
      TEMPO 0118/0121 3/4SM -SN OVC005
     FM020500 27010KT 3SM -SN OVC010
     FM021000 28011KT 6SM -SN OVC015
     FM021500 28013KT P6SM OVC020=



000
FTUS41 KPBZ 011500 AAA
TAFMGW
TAF AMD
KMGW 011539Z 0116/0212 18008KT 5SM -RASN BKN020 OVC030
      TEMPO 0116/0118 3SM -RASN BR OVC015
     FM011800 20006KT 3SM -RA OVC015
     FM020300 26005KT 1SM -SN OVC010
     FM020700 28010KT 3SM -SN OVC010=



000
FTUS41 KPBZ 011500 AAA
TAFMGW
TAF AMD
KMGW 011539Z 0116/0212 18008KT 5SM -RASN BKN020 OVC030
      TEMPO 0116/0118 3SM -RASN BR OVC015
     FM011800 20006KT 3SM -RA OVC015
     FM020300 26005KT 1SM -SN OVC010
     FM020700 28010KT 3SM -SN OVC010=



000
FTUS41 KPBZ 011500 AAC
TAFBVI
TAF AMD
KBVI 011537Z 0116/0212 21005KT 3SM -SN OVC012
      TEMPO 0116/0118 1SM -SN OVC006
     FM020200 26006KT 3SM -SN OVC015
     FM020700 28010KT 6SM -SN OVC010=



000
FTUS41 KPBZ 011500 AAC
TAFBVI
TAF AMD
KBVI 011537Z 0116/0212 21005KT 3SM -SN OVC012
      TEMPO 0116/0118 1SM -SN OVC006
     FM020200 26006KT 3SM -SN OVC015
     FM020700 28010KT 6SM -SN OVC010=



000
FTUS41 KPBZ 011400 AAA
TAFPIT
TAF AMD
KPIT 011458Z 0115/0218 21006KT 2SM -SN SCT008 OVC016
      TEMPO 0115/0117 1SM -SN OVC008
     FM020200 26006KT 3SM -SN OVC015
     FM020700 28010KT 6SM -SN OVC010
     FM021300 27010KT P6SM OVC025=



000
FTUS41 KPBZ 011400 AAA
TAFPIT
TAF AMD
KPIT 011458Z 0115/0218 21006KT 2SM -SN SCT008 OVC016
      TEMPO 0115/0117 1SM -SN OVC008
     FM020200 26006KT 3SM -SN OVC015
     FM020700 28010KT 6SM -SN OVC010
     FM021300 27010KT P6SM OVC025=



000
FTUS41 KPBZ 011400 AAA
TAFLBE
TAF AMD
KLBE 011421Z 0114/0212 00000KT 1 1/2SM -SN SCT002 OVC009
      TEMPO 0114/0116 1/2SM SN OVC008
     FM020300 27010KT 3SM -SN OVC010=



000
FTUS41 KPBZ 011400 AAB
TAFBVI
TAF AMD
KBVI 011420Z 0114/0212 21005KT 1SM -SN OVC010
      TEMPO 0114/0116 1/2SM SN OVC008
     FM020200 26006KT 3SM -SN OVC015
     FM020700 28010KT 6SM -SN OVC010=



000
FTUS41 KPBZ 011400 AAB
TAFBVI
TAF AMD
KBVI 011420Z 0114/0212 21005KT 1SM -SN OVC010
      TEMPO 0114/0116 1/2SM SN OVC008
     FM020200 26006KT 3SM -SN OVC015
     FM020700 28010KT 6SM -SN OVC010=



000
FTUS41 KPBZ 011300 AAA
TAFBVI
TAF AMD
KBVI 011320Z 0113/0212 21005KT 1SM -SN OVC010
      TEMPO 0113/0116 1/2SM SN OVC008
     FM020200 26006KT 3SM -SN OVC015
     FM020700 28010KT 6SM -SN OVC010
      AMD NOT SKED=



000
FTUS41 KPBZ 011300 AAA
TAFBVI
TAF AMD
KBVI 011320Z 0113/0212 21005KT 1SM -SN OVC010
      TEMPO 0113/0116 1/2SM SN OVC008
     FM020200 26006KT 3SM -SN OVC015
     FM020700 28010KT 6SM -SN OVC010
      AMD NOT SKED=



000
FTUS41 KPBZ 011200 AAA
TAFZZV
TAF AMD
KZZV 011239Z 0113/0212 19005KT 1SM -SN BR OVC015
      TEMPO 0113/0116 1/2SM SN OVC008
     FM020300 26006KT 3SM -SN OVC010
     FM020700 29006KT P6SM OVC025=



000
FTUS41 KPBZ 011200 AAA
TAFZZV
TAF AMD
KZZV 011239Z 0113/0212 19005KT 1SM -SN BR OVC015
      TEMPO 0113/0116 1/2SM SN OVC008
     FM020300 26006KT 3SM -SN OVC010
     FM020700 29006KT P6SM OVC025=



000
FTUS41 KPBZ 011100
TAFDUJ
TAF
KDUJ 011120Z 0112/0212 12008KT 3/4SM -SN BR VV014
     FM011800 20005KT 1SM -SN OVC008
     FM020400 27010KT 6SM -SN OVC010
     FM020800 28010KT P6SM OVC010=



000
FTUS41 KPBZ 011100
TAFZZV
TAF
KZZV 011120Z 0112/0212 17005KT 6SM -SN BR FEW023 OVC035
     FM020300 26006KT 3SM -SN OVC010
     FM020700 29006KT P6SM OVC025=



000
FTUS41 KPBZ 011100
TAFLBE
TAF
KLBE 011120Z 0112/0212 00000KT 1 1/2SM -SN BKN002 OVC009
      TEMPO 0112/0116 1/2SM SN OVC008
     FM020300 27010KT 3SM -SN OVC010=



000
FTUS41 KPBZ 011100
TAFMGW
TAF
KMGW 011120Z 0112/0212 18003KT 1SM -SN VV015
     FM011400 18008KT 1SM -SN OVC015
     FM011800 20006KT 3SM -RA OVC010
     FM020300 26005KT 1SM -SN OVC010
     FM020700 28010KT 3SM -SN OVC010=



000
FTUS41 KPBZ 011100
TAFBVI
TAF
KBVI 011120Z 0112/0212 21005KT 1SM -SN OVC010
      TEMPO 0112/0116 1/2SM SN OVC008
     FM020200 26006KT 3SM -SN OVC015
     FM020700 28010KT 6SM -SN OVC010=



000
FTUS41 KPBZ 011100
TAFAGC
TAF
KAGC 011120Z 0112/0212 16009KT 1SM -SN BR BKN007
      TEMPO 0112/0116 1/2SM SN
     FM020200 26006KT 3SM -SN OVC015
     FM020700 28010KT 6SM -SN OVC010=



000
FTUS41 KPBZ 011100
TAFPIT
TAF
KPIT 011120Z 0112/0218 15006KT 1SM -SN VV010
      TEMPO 0112/0116 1/2SM SN OVC008
     FM020200 26006KT 3SM -SN OVC015
     FM020700 28010KT 6SM -SN OVC010
     FM021300 27010KT P6SM OVC025=



000
FTUS41 KPBZ 011100
TAFHLG
TAF
KHLG 011120Z 0112/0212 17008KT 2SM -SN BR BKN006 OVC018
      TEMPO 0112/0116 1/2SM SN OVC008
     FM020200 26006KT 3SM -SN OVC015
     FM020700 28010KT 6SM -SN OVC010=



000
FTUS41 KPBZ 010800 AAB
TAFPIT
TAF AMD
KPIT 010856Z 0109/0212 VRB05KT 1SM -SN OVC015
      TEMPO 0109/0113 1/2SM SN BKN008
     FM020200 26006KT 3SM -SN OVC015
     FM020700 28010KT 6SM -SN OVC010=



000
FTUS41 KPBZ 010800 AAB
TAFPIT
TAF AMD
KPIT 010856Z 0109/0212 VRB05KT 1SM -SN OVC015
      TEMPO 0109/0113 1/2SM SN BKN008
     FM020200 26006KT 3SM -SN OVC015
     FM020700 28010KT 6SM -SN OVC010=



000
FTUS41 KPBZ 010800 AAA
TAFLBE
TAF AMD
KLBE 010848Z 0109/0206 VRB03KT 1SM -SN OVC015
      TEMPO 0109/0113 1/2SM SN BKN008
     FM011700 21005KT 1SM -SN OVC010=



000
FTUS41 KPBZ 010800 AAA
TAFLBE
TAF AMD
KLBE 010848Z 0109/0206 VRB03KT 1SM -SN OVC015
      TEMPO 0109/0113 1/2SM SN BKN008
     FM011700 21005KT 1SM -SN OVC010=



000
FTUS41 KPBZ 010800 AAB
TAFAGC
TAF AMD
KAGC 010827Z 0108/0206 VRB03KT 1SM -SN OVC015
      TEMPO 0108/0112 1/2SM SN OVC008
     FM020200 26006KT 3SM -SN OVC015=



000
FTUS41 KPBZ 010800 AAB
TAFAGC
TAF AMD
KAGC 010827Z 0108/0206 VRB03KT 1SM -SN OVC015
      TEMPO 0108/0112 1/2SM SN OVC008
     FM020200 26006KT 3SM -SN OVC015=



000
FTUS41 KPBZ 010800 AAA
TAFPIT
TAF AMD
KPIT 010826Z 0108/0212 VRB03KT 1SM -SN OVC015
      TEMPO 0108/0112 1/2SM SN BKN008
     FM020200 26006KT 3SM -SN OVC015
     FM020700 28010KT 6SM -SN OVC010=



000
FTUS41 KPBZ 010800 AAA
TAFPIT
TAF AMD
KPIT 010826Z 0108/0212 VRB03KT 1SM -SN OVC015
      TEMPO 0108/0112 1/2SM SN BKN008
     FM020200 26006KT 3SM -SN OVC015
     FM020700 28010KT 6SM -SN OVC010=



000
FTUS41 KPBZ 010800 AAA
TAFAGC
TAF AMD
KAGC 010800Z 0108/0206 VRB03KT 1SM -SN OVC015
     FM011000 VRB03KT 3/4SM -SN OVC010
     FM011500 21005KT 1SM -SN OVC010
     FM020200 26006KT 3SM -SN OVC015=



000
FTUS41 KPBZ 010800 AAB
TAFHLG
TAF AMD
KHLG 010800Z 0108/0206 VRB05KT 1SM -SN OVC015
      TEMPO 0108/0112 1/2SM SN OVC008
     FM020200 26006KT 3SM -SN OVC015=



000
FTUS41 KPBZ 010800 AAA
TAFAGC
TAF AMD
KAGC 010800Z 0108/0206 VRB03KT 1SM -SN OVC015
     FM011000 VRB03KT 3/4SM -SN OVC010
     FM011500 21005KT 1SM -SN OVC010
     FM020200 26006KT 3SM -SN OVC015=



000
FTUS41 KPBZ 010800 AAB
TAFHLG
TAF AMD
KHLG 010800Z 0108/0206 VRB05KT 1SM -SN OVC015
      TEMPO 0108/0112 1/2SM SN OVC008
     FM020200 26006KT 3SM -SN OVC015=



000
FTUS41 KPBZ 010700 AAA
TAFDUJ
TAF AMD
KDUJ 010745Z 0108/0206 VRB05KT 1SM -SN OVC025
     FM011000 VRB05KT 1/2SM SN OVC008
     FM011800 20005KT 1SM -SN OVC008
     FM020400 27010KT 6SM -SN OVC010=



000
FTUS41 KPBZ 010700 AAA
TAFDUJ
TAF AMD
KDUJ 010745Z 0108/0206 VRB05KT 1SM -SN OVC025
     FM011000 VRB05KT 1/2SM SN OVC008
     FM011800 20005KT 1SM -SN OVC008
     FM020400 27010KT 6SM -SN OVC010=



000
FTUS41 KPBZ 010700 AAC
TAFZZV
TAF AMD
KZZV 010733Z 0108/0206 VRB05KT 1SM -SN OVC010
     FM020300 26006KT 3SM -SN OVC010=



000
FTUS41 KPBZ 010700 AAC
TAFZZV
TAF AMD
KZZV 010733Z 0108/0206 VRB05KT 1SM -SN OVC010
     FM020300 26006KT 3SM -SN OVC010=



000
FTUS41 KPBZ 010700 AAA
TAFHLG
TAF AMD
KHLG 010732Z 0108/0206 VRB05KT 1SM -SN OVC015
     FM020200 26006KT 3SM -SN OVC015=



000
FTUS41 KPBZ 010700 AAA
TAFHLG
TAF AMD
KHLG 010732Z 0108/0206 VRB05KT 1SM -SN OVC015
     FM020200 26006KT 3SM -SN OVC015=



000
FTUS41 KPBZ 010600 AAB
TAFZZV
TAF AMD
KZZV 010659Z 0107/0206 VRB03KT 6SM -SN OVC025
     FM010800 VRB05KT 1SM -SN OVC010
     FM020300 26006KT 3SM -SN OVC010=



000
FTUS41 KPBZ 010600 AAB
TAFZZV
TAF AMD
KZZV 010659Z 0107/0206 VRB03KT 6SM -SN OVC025
     FM010800 VRB05KT 1SM -SN OVC010
     FM020300 26006KT 3SM -SN OVC010=



000
FTUS41 KPBZ 010600 AAA
TAFZZV
TAF AMD
KZZV 010610Z 0106/0206 VRB03KT P6SM OVC050
     FM010700 VRB05KT 1SM -SN OVC010
     FM020300 26006KT 3SM -SN OVC010=



000
FTUS41 KPBZ 010600 AAA
TAFZZV
TAF AMD
KZZV 010610Z 0106/0206 VRB03KT P6SM OVC050
     FM010700 VRB05KT 1SM -SN OVC010
     FM020300 26006KT 3SM -SN OVC010=



000
FTUS41 KPBZ 010500
TAFDUJ
TAF
KDUJ 010520Z 0106/0206 VRB03KT P6SM OVC070
     FM010800 VRB05KT 2SM -SN OVC025
     FM011000 VRB05KT 1/2SM SN OVC008
     FM011800 20005KT 1SM -SN OVC008
     FM020400 27010KT 6SM -SN OVC010=



000
FTUS41 KPBZ 010500
TAFPIT
TAF
KPIT 010520Z 0106/0212 VRB05KT P6SM OVC080
     FM010800 VRB03KT 2SM -SN OVC025
     FM011000 VRB03KT 3/4SM -SN OVC010
     FM011500 21005KT 1SM -SN OVC010
     FM020200 26006KT 3SM -SN OVC015
     FM020700 28010KT 6SM -SN OVC010=



000
FTUS41 KPBZ 010500
TAFBVI
TAF
KBVI 010520Z 0106/0206 VRB05KT P6SM OVC080
     FM010800 VRB03KT 2SM -SN OVC025
     FM011000 VRB03KT 3/4SM -SN OVC010
     FM011500 21005KT 1SM -SN OVC010
     FM020200 26006KT 3SM -SN OVC015
      AMD NOT SKED=



000
FTUS41 KPBZ 010500
TAFLBE
TAF
KLBE 010520Z 0106/0206 VRB05KT P6SM OVC080
     FM010900 VRB03KT 2SM -SN OVC025
     FM011200 VRB03KT 3/4SM -SN OVC010
     FM011700 21005KT 1SM -SN OVC010=



000
FTUS41 KPBZ 010500
TAFAGC
TAF
KAGC 010520Z 0106/0206 VRB05KT P6SM OVC080
     FM010800 VRB03KT 2SM -SN OVC025
     FM011000 VRB03KT 3/4SM -SN OVC010
     FM011500 21005KT 1SM -SN OVC010
     FM020200 26006KT 3SM -SN OVC015=



000
FTUS41 KPBZ 010500
TAFHLG
TAF
KHLG 010520Z 0106/0206 VRB05KT P6SM OVC080
     FM010800 VRB03KT 2SM -SN OVC025
     FM011000 VRB03KT 3/4SM -SN OVC010
     FM011500 21005KT 1SM -SN OVC010
     FM020200 26006KT 3SM -SN OVC015=



000
FTUS41 KPBZ 010500
TAFZZV
TAF
KZZV 010520Z 0106/0206 VRB03KT 3SM -SN OVC025
     FM010800 VRB05KT 3/4SM -SN OVC010
     FM011600 21006KT 1SM -SN OVC010
     FM020300 26006KT 3SM -SN OVC010=



000
FTUS41 KPBZ 010500
TAFMGW
TAF
KMGW 010520Z 0106/0206 VRB03KT P6SM OVC080
     FM011100 VRB04KT 3SM -SN OVC025
     FM011400 18008KT 1SM -SN OVC015
     FM011800 20006KT 3SM -RA OVC010
     FM020300 26005KT 1SM -SN OVC010=



000
FTUS41 KPBZ 010300 AAA
TAFBVI
TAF AMD
KBVI 010304Z 0103/0124 00000KT P6SM SCT200
     FM010500 09005KT P6SM OVC080
     FM010800 12006KT 1 1/2SM -SN OVC015
     FM011300 18006KT 1SM -SN OVC006
     FM012000 20006KT 3SM -RASN OVC006
      AMD NOT SKED 0102/0112=



000
FTUS41 KPBZ 010300 AAA
TAFPIT
TAF AMD
KPIT 010304Z 0103/0206 10004KT P6SM SCT200
     FM010500 11005KT P6SM OVC080
     FM010900 12006KT 1 1/2SM -SN OVC015
     FM011300 18006KT 1SM -SN OVC006
     FM011900 20005KT 3SM -RASN OVC006
     FM020300 25007KT 2SM -SN OVC006=



000
FTUS41 KPBZ 010300 AAA
TAFLBE
TAF AMD
KLBE 010304Z 0103/0124 03005KT P6SM SCT200
     FM010600 11006KT P6SM OVC060
     FM011100 14006KT 1SM -SN OVC015
     FM011600 19005KT 3SM -RASN OVC006=



000
FTUS41 KPBZ 010300 AAA
TAFAGC
TAF AMD
KAGC 010304Z 0103/0124 07003KT P6SM SCT200
     FM010500 09005KT P6SM OVC080
     FM010900 12006KT 1 1/2SM -SN OVC015
     FM011300 18007KT 1SM -SN OVC006
     FM011800 20006KT 3SM -RASN OVC006=



000
FTUS41 KPBZ 010300 AAA
TAFDUJ
TAF AMD
KDUJ 010304Z 0103/0124 12005KT P6SM SCT200
     FM010600 11004KT P6SM OVC080
     FM010900 13006KT 1 1/2SM -SN OVC015
     FM011100 16005KT 1SM -SN OVC007
     FM012100 20006KT 1SM -SN OVC004=



000
FTUS41 KPBZ 010300 AAA
TAFMGW
TAF AMD
KMGW 010304Z 0103/0124 36004KT P6SM BKN080
     FM011000 14006KT 2SM -SN OVC015
     FM011600 18006KT 4SM -RA OVC008=



000
FTUS41 KPBZ 010300 AAA
TAFLBE
TAF AMD
KLBE 010304Z 0103/0124 03005KT P6SM SCT200
     FM010600 11006KT P6SM OVC060
     FM011100 14006KT 1SM -SN OVC015
     FM011600 19005KT 3SM -RASN OVC006=



000
FTUS41 KPBZ 010300 AAA
TAFZZV
TAF AMD
KZZV 010304Z 0103/0124 09004KT P6SM OVC070
     FM010700 14006KT 1 1/2SM -SN OVC015
     FM011000 16006KT 1SM -SN OVC008
     FM011900 21005KT 3SM -RASN OVC006=



000
FTUS41 KPBZ 010300 AAA
TAFBVI
TAF AMD
KBVI 010304Z 0103/0124 00000KT P6SM SCT200
     FM010500 09005KT P6SM OVC080
     FM010800 12006KT 1 1/2SM -SN OVC015
     FM011300 18006KT 1SM -SN OVC006
     FM012000 20006KT 3SM -RASN OVC006
      AMD NOT SKED 0102/0112=



000
FTUS41 KPBZ 010300 AAA
TAFHLG
TAF AMD
KHLG 010304Z 0103/0124 09006KT P6SM SCT200
     FM010500 10004KT P6SM OVC080
     FM010800 12006KT 1 1/2SM -SN OVC015
     FM011300 18006KT 1SM -SN OVC006
     FM011700 21005KT 3SM -RASN OVC006=



000
FTUS41 KPBZ 010300 AAA
TAFAGC
TAF AMD
KAGC 010304Z 0103/0124 07003KT P6SM SCT200
     FM010500 09005KT P6SM OVC080
     FM010900 12006KT 1 1/2SM -SN OVC015
     FM011300 18007KT 1SM -SN OVC006
     FM011800 20006KT 3SM -RASN OVC006=



000
FTUS41 KPBZ 010300 AAA
TAFPIT
TAF AMD
KPIT 010304Z 0103/0206 10004KT P6SM SCT200
     FM010500 11005KT P6SM OVC080
     FM010900 12006KT 1 1/2SM -SN OVC015
     FM011300 18006KT 1SM -SN OVC006
     FM011900 20005KT 3SM -RASN OVC006
     FM020300 25007KT 2SM -SN OVC006=



000
FTUS41 KPBZ 010300 AAA
TAFHLG
TAF AMD
KHLG 010304Z 0103/0124 09006KT P6SM SCT200
     FM010500 10004KT P6SM OVC080
     FM010800 12006KT 1 1/2SM -SN OVC015
     FM011300 18006KT 1SM -SN OVC006
     FM011700 21005KT 3SM -RASN OVC006=



000
FTUS41 KPBZ 010300 AAA
TAFDUJ
TAF AMD
KDUJ 010304Z 0103/0124 12005KT P6SM SCT200
     FM010600 11004KT P6SM OVC080
     FM010900 13006KT 1 1/2SM -SN OVC015
     FM011100 16005KT 1SM -SN OVC007
     FM012100 20006KT 1SM -SN OVC004=



000
FTUS41 KPBZ 010300 AAA
TAFMGW
TAF AMD
KMGW 010304Z 0103/0124 36004KT P6SM BKN080
     FM011000 14006KT 2SM -SN OVC015
     FM011600 18006KT 4SM -RA OVC008=



000
FTUS41 KPBZ 010300 AAA
TAFZZV
TAF AMD
KZZV 010304Z 0103/0124 09004KT P6SM OVC070
     FM010700 14006KT 1 1/2SM -SN OVC015
     FM011000 16006KT 1SM -SN OVC008
     FM011900 21005KT 3SM -RASN OVC006=



000
FTUS41 KPBZ 282300
TAFZZV
TAF
KZZV 282320Z 0100/0124 09006KT P6SM SCT120
     FM010200 10004KT P6SM OVC070
     FM010500 14006KT 2SM -SN OVC015
     FM011000 16006KT 1SM -SN OVC008
     FM011900 21005KT 3SM -RASN OVC006=



000
FTUS41 KPBZ 282300
TAFPIT
TAF
KPIT 282320Z 0100/0206 10004KT P6SM SCT120
     FM010400 11005KT P6SM OVC060
     FM010700 12006KT 2SM -SN OVC015
     FM011300 18006KT 1SM -SN OVC006
     FM011900 20005KT 3SM -RASN OVC006
     FM020300 25007KT 2SM -SN OVC006=



000
FTUS41 KPBZ 282300
TAFMGW
TAF
KMGW 282320Z 0100/0124 03004KT P6SM BKN080
     FM010500 09003KT P6SM OVC070
     FM010800 14006KT 2SM -SN OVC015
     FM011600 18006KT 4SM -RA OVC008=



000
FTUS41 KPBZ 282300
TAFAGC
TAF
KAGC 282320Z 0100/0124 09003KT P6SM SCT120
     FM010400 09005KT P6SM OVC060
     FM010700 12006KT 2SM -SN OVC015
     FM011300 18007KT 1SM -SN OVC006
     FM011800 20006KT 3SM -RASN OVC006=



000
FTUS41 KPBZ 282300
TAFLBE
TAF
KLBE 282320Z 0100/0124 03005KT P6SM SCT120
     FM010500 11006KT P6SM OVC050
     FM010900 14006KT 1SM -SN OVC015
     FM011600 19005KT 3SM -RASN OVC006=



000
FTUS41 KPBZ 282300
TAFHLG
TAF
KHLG 282320Z 0100/0124 08005KT P6SM SCT120
     FM010300 10004KT P6SM OVC060
     FM010600 12006KT 2SM -SN OVC015
     FM011300 18006KT 1SM -SN OVC006
     FM011700 21005KT 3SM -RASN OVC006=



000
FTUS41 KPBZ 282300
TAFDUJ
TAF
KDUJ 282320Z 0100/0124 13003KT P6SM SCT120
     FM010500 11004KT P6SM OVC060
     FM010900 13006KT 2SM -SN OVC015
     FM011100 16005KT 1SM -SN OVC007
     FM012100 20006KT 1SM -SN OVC004=



000
FTUS41 KPBZ 282300
TAFBVI
TAF
KBVI 282320Z 0100/0124 00000KT P6SM SCT120
     FM010400 09005KT P6SM OVC060
     FM010700 12006KT 2SM -SN OVC015
     FM011300 18006KT 1SM -SN OVC006
     FM012000 20006KT 3SM -RASN OVC006
      AMD NOT SKED 0102/0112=



000
FTUS41 KPBZ 282300
TAFZZV
TAF
KZZV 282320Z 0100/0124 09006KT P6SM SCT120
     FM010200 10004KT P6SM OVC070
     FM010500 14006KT 2SM -SN OVC015
     FM011000 16006KT 1SM -SN OVC008
     FM011900 21005KT 3SM -RASN OVC006=



000
FTUS41 KPBZ 282300
TAFDUJ
TAF
KDUJ 282320Z 0100/0124 13003KT P6SM SCT120
     FM010500 11004KT P6SM OVC060
     FM010900 13006KT 2SM -SN OVC015
     FM011100 16005KT 1SM -SN OVC007
     FM012100 20006KT 1SM -SN OVC004=



000
FTUS41 KPBZ 282300
TAFAGC
TAF
KAGC 282320Z 0100/0124 09003KT P6SM SCT120
     FM010400 09005KT P6SM OVC060
     FM010700 12006KT 2SM -SN OVC015
     FM011300 18007KT 1SM -SN OVC006
     FM011800 20006KT 3SM -RASN OVC006=



000
FTUS41 KPBZ 282300
TAFBVI
TAF
KBVI 282320Z 0100/0124 00000KT P6SM SCT120
     FM010400 09005KT P6SM OVC060
     FM010700 12006KT 2SM -SN OVC015
     FM011300 18006KT 1SM -SN OVC006
     FM012000 20006KT 3SM -RASN OVC006
      AMD NOT SKED 0102/0112=



000
FTUS41 KPBZ 282300
TAFHLG
TAF
KHLG 282320Z 0100/0124 08005KT P6SM SCT120
     FM010300 10004KT P6SM OVC060
     FM010600 12006KT 2SM -SN OVC015
     FM011300 18006KT 1SM -SN OVC006
     FM011700 21005KT 3SM -RASN OVC006=



000
FTUS41 KPBZ 282300
TAFLBE
TAF
KLBE 282320Z 0100/0124 03005KT P6SM SCT120
     FM010500 11006KT P6SM OVC050
     FM010900 14006KT 1SM -SN OVC015
     FM011600 19005KT 3SM -RASN OVC006=



000
FTUS41 KPBZ 282300
TAFPIT
TAF
KPIT 282320Z 0100/0206 10004KT P6SM SCT120
     FM010400 11005KT P6SM OVC060
     FM010700 12006KT 2SM -SN OVC015
     FM011300 18006KT 1SM -SN OVC006
     FM011900 20005KT 3SM -RASN OVC006
     FM020300 25007KT 2SM -SN OVC006=



000
FTUS41 KPBZ 282300
TAFMGW
TAF
KMGW 282320Z 0100/0124 03004KT P6SM BKN080
     FM010500 09003KT P6SM OVC070
     FM010800 14006KT 2SM -SN OVC015
     FM011600 18006KT 4SM -RA OVC008=



000
FTUS41 KPBZ 282000 AAA
TAFPIT
TAF AMD
KPIT 282058Z 2821/0124 08005KT P6SM BKN120
     FM010400 09005KT P6SM OVC060
     FM010700 12006KT 2SM -SN OVC015
     FM011300 18006KT 1SM -SN OVC008
     FM011900 20005KT 3SM -RASN OVC012=



000
FTUS41 KPBZ 281700 RRA
TAFZZV
TAF
KZZV 281747Z 2818/0118 VRB05KT P6SM BKN100
     FM010200 10005KT P6SM OVC070
     FM010600 14006KT 2SM -SN OVC015
     FM011000 16006KT 1SM -SN OVC010=



000
FTUS41 KPBZ 281700 RRA
TAFAGC
TAF
KAGC 281747Z 2818/0118 11005KT P6SM BKN120
     FM010400 09005KT P6SM OVC060
     FM010700 12006KT 2SM -SN OVC015
     FM011300 18007KT 1SM -SN OVC008
     FM011700 18006KT 3SM -RASN OVC012=



000
FTUS41 KPBZ 281700 RRA
TAFPIT
TAF
KPIT 281747Z 2818/0124 10005KT P6SM BKN120
     FM010400 09005KT P6SM OVC060
     FM010700 12006KT 2SM -SN OVC015
     FM011300 18006KT 1SM -SN OVC008
     FM011900 20005KT 3SM -RASN OVC012=



000
FTUS41 KPBZ 281700 RRA
TAFMGW
TAF
KMGW 281747Z 2818/0118 05003KT P6SM BKN100
     FM010500 VRB03KT P6SM OVC070
     FM010800 14006KT 2SM -SN OVC015
     FM011600 18006KT 4SM -RA OVC015=



000
FTUS41 KPBZ 281700 RRA
TAFHLG
TAF
KHLG 281747Z 2818/0118 12003KT P6SM BKN120
     FM010400 10004KT P6SM OVC060
     FM010700 12006KT 2SM -SN OVC015
     FM011300 18006KT 1SM -SN OVC008
     FM011700 18005KT 3SM -RASN OVC012=



000
FTUS41 KPBZ 281700 RRA
TAFDUJ
TAF
KDUJ 281747Z 2818/0118 VRB03KT P6SM BKN120
     FM010500 11006KT P6SM OVC060
     FM010900 13006KT 3SM -SN OVC015
     FM011100 16005KT 2SM -SN OVC007
     FM011300 16006KT 1SM -SN OVC005=



000
FTUS41 KPBZ 281700 RRA
TAFLBE
TAF
KLBE 281747Z 2818/0118 VRB03KT P6SM SCT120
     FM010500 11006KT P6SM OVC050
     FM010900 14006KT 1SM -SN OVC015
     FM011600 19005KT 3SM -RASN OVC006=



000
FTUS41 KPBZ 281700 RRA
TAFBVI
TAF
KBVI 281747Z 2818/0118 13004KT P6SM BKN120
     FM010400 09005KT P6SM OVC060
     FM010700 12006KT 2SM -SN OVC015
     FM011300 18006KT 1SM -SN OVC008=



000
FTUS41 KPBZ 281700 RRA
TAFPIT
TAF
KPIT 281747Z 2818/0124 10005KT P6SM BKN120
     FM010400 09005KT P6SM OVC060
     FM010700 12006KT 2SM -SN OVC015
     FM011300 18006KT 1SM -SN OVC008
     FM011900 20005KT 3SM -RASN OVC012=



000
FTUS41 KPBZ 281700 RRA
TAFDUJ
TAF
KDUJ 281747Z 2818/0118 VRB03KT P6SM BKN120
     FM010500 11006KT P6SM OVC060
     FM010900 13006KT 3SM -SN OVC015
     FM011100 16005KT 2SM -SN OVC007
     FM011300 16006KT 1SM -SN OVC005=



000
FTUS41 KPBZ 281700 RRA
TAFLBE
TAF
KLBE 281747Z 2818/0118 VRB03KT P6SM SCT120
     FM010500 11006KT P6SM OVC050
     FM010900 14006KT 1SM -SN OVC015
     FM011600 19005KT 3SM -RASN OVC006=



000
FTUS41 KPBZ 281700 RRA
TAFZZV
TAF
KZZV 281747Z 2818/0118 VRB05KT P6SM BKN100
     FM010200 10005KT P6SM OVC070
     FM010600 14006KT 2SM -SN OVC015
     FM011000 16006KT 1SM -SN OVC010=



000
FTUS41 KPBZ 281700 RRA
TAFAGC
TAF
KAGC 281747Z 2818/0118 11005KT P6SM BKN120
     FM010400 09005KT P6SM OVC060
     FM010700 12006KT 2SM -SN OVC015
     FM011300 18007KT 1SM -SN OVC008
     FM011700 18006KT 3SM -RASN OVC012=



000
FTUS41 KPBZ 281700 RRA
TAFHLG
TAF
KHLG 281747Z 2818/0118 12003KT P6SM BKN120
     FM010400 10004KT P6SM OVC060
     FM010700 12006KT 2SM -SN OVC015
     FM011300 18006KT 1SM -SN OVC008
     FM011700 18005KT 3SM -RASN OVC012=



000
FTUS41 KPBZ 281700 RRA
TAFBVI
TAF
KBVI 281747Z 2818/0118 13004KT P6SM BKN120
     FM010400 09005KT P6SM OVC060
     FM010700 12006KT 2SM -SN OVC015
     FM011300 18006KT 1SM -SN OVC008=



000
FTUS41 KPBZ 281700 RRA
TAFMGW
TAF
KMGW 281747Z 2818/0118 05003KT P6SM BKN100
     FM010500 VRB03KT P6SM OVC070
     FM010800 14006KT 2SM -SN OVC015
     FM011600 18006KT 4SM -RA OVC015=



000
FTUS41 KPBZ 281500 AAA
TAFPIT
TAF AMD
KPIT 281501Z 2815/0118 VRB03KT P6SM SCT250
     FM281700 VRB03KT P6SM BKN120
     FM010400 09006KT P6SM OVC080
     FM010800 14006KT 2SM -SN OVC015
     FM011400 18006KT 1SM -SN OVC010=



    US Dept of Commerce
    National Oceanic and Atmospheric Administration
    National Weather Service
    1325 East West Highway
    Silver Spring, MD 20910
    Page Author: NWS Internet Services Team
Disclaimer
Information Quality
Credits
Glossary
Privacy Policy
Freedom of Information Act (FOIA)
About Us
Career Opportunities